createdAt,value
2022-09-16T00:00:53.666Z,10.68
2022-09-16T00:03:21.223Z,8.45
2022-09-16T00:05:51.345Z,14.18
2022-09-16T00:08:19.805Z,18.10
2022-09-16T00:10:48.850Z,19.63
2022-09-16T00:13:17.103Z,10.45
2022-09-16T00:15:51.148Z,15.68
2022-09-16T00:18:22.696Z,10.88
2022-09-16T00:20:52.024Z,17.40
2022-09-16T00:23:20.146Z,15.55
2022-09-16T00:25:56.454Z,12.25
2022-09-16T00:28:24.394Z,15.30
2022-09-16T00:30:51.892Z,15.40
2022-09-16T00:33:20.288Z,14.25
2022-09-16T00:35:48.094Z,14.98
2022-09-16T00:38:16.105Z,13.57
2022-09-16T00:40:48.822Z,11.63
2022-09-16T00:43:19.962Z,22.48
2022-09-16T00:46:03.175Z,15.52
2022-09-16T00:48:32.624Z,14.48
2022-09-16T00:51:06.562Z,17.17
2022-09-16T00:53:49.313Z,14.95
2022-09-16T00:56:21.464Z,18.27
2022-09-16T00:59:13.793Z,20.30
2022-09-16T01:01:44.885Z,15.27
2022-09-16T01:04:22.406Z,22.77
2022-09-16T01:06:50.973Z,17.67
2022-09-16T01:09:21.154Z,16.40
2022-09-16T01:11:48.657Z,19.77
2022-09-16T01:14:35.715Z,17.85
2022-09-16T01:17:29.456Z,21.15
2022-09-16T01:20:47.259Z,18.05
2022-09-16T01:23:52.103Z,25.90
2022-09-16T01:26:41.005Z,16.42
2022-09-16T01:29:46.631Z,22.20
2022-09-16T01:32:29.020Z,19.13
2022-09-16T01:38:02.096Z,25.08
2022-09-16T01:40:46.221Z,15.60
2022-09-16T01:43:32.208Z,18.70
2022-09-16T01:46:23.105Z,16.80
2022-09-16T01:48:59.015Z,14.68
2022-09-16T01:51:55.259Z,18.48
2022-09-16T01:54:45.758Z,20.75
2022-09-16T01:57:34.763Z,21.25
2022-09-16T02:00:14.399Z,16.55
2022-09-16T02:02:51.557Z,16.33
2022-09-16T02:05:36.895Z,21.48
2022-09-16T02:08:09.546Z,23.40
2022-09-16T02:10:45.251Z,18.55
2022-09-16T02:13:35.493Z,15.50
2022-09-16T02:16:08.264Z,16.65
2022-09-16T02:18:39.573Z,17.77
2022-09-16T02:21:11.447Z,22.08
2022-09-16T02:23:48.939Z,13.82
2022-09-16T02:26:20.987Z,19.85
2022-09-16T02:28:50.892Z,18.05
2022-09-16T02:31:24.929Z,19.58
2022-09-16T02:33:58.084Z,13.75
2022-09-16T02:36:28.027Z,21.73
2022-09-16T02:39:09.542Z,14.98
2022-09-16T02:41:39.580Z,20.02
2022-09-16T02:44:08.856Z,20.30
2022-09-16T02:46:57.507Z,17.83
2022-09-16T02:49:44.336Z,16.42
2022-09-16T02:52:20.578Z,14.10
2022-09-16T02:55:04.700Z,15.95
2022-09-16T02:57:32.576Z,15.43
2022-09-16T03:00:00.088Z,13.13
2022-09-16T03:02:27.648Z,18.60
2022-09-16T03:04:55.143Z,9.43
2022-09-16T03:07:22.578Z,10.98
2022-09-16T03:09:50.692Z,15.77
2022-09-16T03:12:22.531Z,13.00
2022-09-16T03:15:47.000Z,19.70
2022-09-16T03:18:19.939Z,12.82
2022-09-16T03:21:03.773Z,13.70
2022-09-16T03:23:53.404Z,14.40
2022-09-16T03:26:46.893Z,12.95
2022-09-16T03:29:35.399Z,12.23
2022-09-16T03:32:15.429Z,18.48
2022-09-16T03:34:48.676Z,12.15
2022-09-16T03:37:18.811Z,14.43
2022-09-16T03:39:56.011Z,15.50
2022-09-16T03:42:24.253Z,11.43
2022-09-16T03:44:51.907Z,13.57
2022-09-16T03:47:19.347Z,12.23
2022-09-16T03:49:46.730Z,12.52
2022-09-16T03:52:14.132Z,15.43
2022-09-16T03:54:41.605Z,18.02
2022-09-16T03:57:09.691Z,17.48
2022-09-16T03:59:37.063Z,13.52
2022-09-16T04:02:04.449Z,20.65
2022-09-16T04:04:31.824Z,18.15
2022-09-16T04:06:59.172Z,14.77
2022-09-16T04:09:26.534Z,16.75
2022-09-16T04:11:53.966Z,15.75
2022-09-16T04:14:21.442Z,16.85
2022-09-16T04:16:48.846Z,17.15
2022-09-16T04:19:16.257Z,15.80
2022-09-16T04:21:43.674Z,16.75
2022-09-16T04:24:13.403Z,14.27
2022-09-16T04:26:41.897Z,26.70
2022-09-16T04:29:09.293Z,19.88
2022-09-16T04:31:36.903Z,19.13
2022-09-16T04:34:05.017Z,20.67
2022-09-16T04:36:33.687Z,17.00
2022-09-16T04:39:01.021Z,16.83
2022-09-16T04:41:28.572Z,19.70
2022-09-16T04:43:57.808Z,12.68
2022-09-16T04:46:29.726Z,22.45
2022-09-16T04:48:57.412Z,14.55
2022-09-16T04:51:27.463Z,17.17
2022-09-16T04:53:57.282Z,17.05
2022-09-16T04:56:31.510Z,16.45
2022-09-16T04:59:04.313Z,13.15
2022-09-16T05:01:35.154Z,17.20
2022-09-16T05:04:04.324Z,21.67
2022-09-16T05:06:34.605Z,14.75
2022-09-16T05:09:02.799Z,17.77
2022-09-16T05:11:33.580Z,16.08
2022-09-16T05:14:03.039Z,11.25
2022-09-16T05:16:31.306Z,15.32
2022-09-16T05:19:00.646Z,19.88
2022-09-16T05:21:29.082Z,17.25
2022-09-16T05:24:01.007Z,16.02
2022-09-16T05:26:31.308Z,14.80
2022-09-16T05:29:03.892Z,13.13
2022-09-16T05:31:33.736Z,14.10
2022-09-16T05:34:04.158Z,13.23
2022-09-16T05:36:33.851Z,14.18
2022-09-16T05:39:22.183Z,14.35
2022-09-16T05:41:50.744Z,10.70
2022-09-16T05:44:18.221Z,14.65
2022-09-16T05:46:45.606Z,10.80
2022-09-16T05:49:13.070Z,15.00
2022-09-16T05:51:41.469Z,12.50
2022-09-16T05:54:08.930Z,16.65
2022-09-16T05:56:36.329Z,16.45
2022-09-16T05:59:04.019Z,13.80
2022-09-16T06:01:35.954Z,20.10
2022-09-16T06:04:05.857Z,15.23
2022-09-16T06:06:38.929Z,16.90
2022-09-16T06:09:12.186Z,11.77
2022-09-16T06:11:45.025Z,20.17
2022-09-16T06:14:13.525Z,22.15
2022-09-16T06:16:41.329Z,14.60
2022-09-16T06:19:13.651Z,19.77
2022-09-16T06:21:43.740Z,17.60
2022-09-16T06:24:13.249Z,12.77
2022-09-16T06:26:42.998Z,15.02
2022-09-16T06:29:11.520Z,10.43
2022-09-16T06:31:40.071Z,11.55
2022-09-16T06:34:08.864Z,15.00
2022-09-16T06:36:42.789Z,8.38
2022-09-16T06:39:13.760Z,8.15
2022-09-16T06:41:41.298Z,11.35
2022-09-16T06:44:08.866Z,10.60
2022-09-16T06:46:37.341Z,14.60
2022-09-16T06:49:06.508Z,12.25
2022-09-16T06:51:35.897Z,10.40
2022-09-16T06:54:06.369Z,10.60
2022-09-16T06:56:36.299Z,9.57
2022-09-16T06:59:04.117Z,9.38
2022-09-16T07:01:32.689Z,11.18
2022-09-16T07:04:03.650Z,8.05
2022-09-16T07:07:04.869Z,10.98
2022-09-16T07:09:20.374Z,10.98
2022-09-16T07:11:47.738Z,10.95
2022-09-16T07:14:15.180Z,13.35
2022-09-16T07:16:42.623Z,14.25
2022-09-16T07:19:10.945Z,19.77
2022-09-16T07:21:38.331Z,11.55
2022-09-16T07:24:05.882Z,18.35
2022-09-16T07:26:35.393Z,15.98
2022-09-16T07:29:05.032Z,15.02
2022-09-16T07:31:37.547Z,18.25
2022-09-16T07:34:07.174Z,10.52
2022-09-16T07:36:38.952Z,10.57
2022-09-16T07:39:06.790Z,15.05
2022-09-16T07:41:36.876Z,16.30
2022-09-16T07:44:05.798Z,24.65
2022-09-16T07:46:35.311Z,14.57
2022-09-16T07:49:05.077Z,16.33
2022-09-16T07:51:33.464Z,14.05
2022-09-16T07:54:04.265Z,19.27
2022-09-16T07:56:34.959Z,13.82
2022-09-16T07:59:04.684Z,16.23
2022-09-16T08:01:32.263Z,28.48
2022-09-16T08:04:00.871Z,19.80
2022-09-16T08:06:30.853Z,17.88
2022-09-16T08:09:10.041Z,24.77
2022-09-16T08:11:47.659Z,21.50
2022-09-16T08:14:15.073Z,14.80
2022-09-16T08:16:42.560Z,15.25
2022-09-16T08:19:09.988Z,12.63
2022-09-16T08:21:37.373Z,13.07
2022-09-16T08:24:05.007Z,14.80
2022-09-16T08:26:32.399Z,18.58
2022-09-16T08:29:15.354Z,10.57
2022-09-16T08:31:43.056Z,16.02
2022-09-16T08:34:10.424Z,13.65
2022-09-16T08:36:37.802Z,11.32
2022-09-16T08:39:05.199Z,15.57
2022-09-16T08:42:12.431Z,15.38
2022-09-16T08:44:51.916Z,12.60
2022-09-16T08:47:28.631Z,14.73
2022-09-16T08:49:58.939Z,17.90
2022-09-16T08:52:40.973Z,13.90
2022-09-16T08:55:23.951Z,13.70
2022-09-16T08:58:10.748Z,14.43
2022-09-16T09:00:39.647Z,12.77
2022-09-16T09:03:28.568Z,14.80
2022-09-16T09:05:58.722Z,12.48
2022-09-16T09:08:44.039Z,19.50
2022-09-16T09:11:38.963Z,12.10
2022-09-16T09:14:16.857Z,15.60
2022-09-16T09:17:05.279Z,14.93
2022-09-16T09:19:57.910Z,17.17
2022-09-16T09:22:48.555Z,17.73
2022-09-16T09:25:22.020Z,15.85
2022-09-16T09:28:16.774Z,18.92
2022-09-16T09:31:11.056Z,16.65
2022-09-16T09:33:50.422Z,12.48
2022-09-16T09:36:41.758Z,16.02
2022-09-16T09:39:24.463Z,14.07
2022-09-16T09:42:00.524Z,12.10
2022-09-16T09:44:47.372Z,16.15
2022-09-16T09:47:43.173Z,17.33
2022-09-16T09:50:29.067Z,16.50
2022-09-16T09:53:11.808Z,20.48
2022-09-16T09:55:41.219Z,20.50
2022-09-16T09:58:21.809Z,16.67
2022-09-16T10:00:49.838Z,15.73
2022-09-16T10:03:18.512Z,19.95
2022-09-16T10:05:47.541Z,15.52
2022-09-16T10:08:20.737Z,17.85
2022-09-16T10:10:52.641Z,17.48
2022-09-16T10:13:21.291Z,15.55
2022-09-16T10:15:53.287Z,20.27
2022-09-16T10:18:32.489Z,17.08
2022-09-16T10:21:07.874Z,13.60
2022-09-16T10:23:36.415Z,21.90
2022-09-16T10:26:24.589Z,16.00
2022-09-16T10:28:55.902Z,12.35
2022-09-16T10:31:29.168Z,17.27
2022-09-16T10:34:01.179Z,16.17
2022-09-16T10:36:32.658Z,18.08
2022-09-16T10:39:05.168Z,16.05
2022-09-16T10:41:34.324Z,13.43
2022-09-16T10:44:17.825Z,18.75
2022-09-16T10:47:06.779Z,18.48
2022-09-16T10:50:02.133Z,13.77
2022-09-16T10:52:44.028Z,17.55
2022-09-16T10:55:23.450Z,12.63
2022-09-16T10:57:51.426Z,16.08
2022-09-16T11:00:23.288Z,15.85
2022-09-16T11:03:25.313Z,12.93
2022-09-16T11:05:55.531Z,17.80
2022-09-16T11:09:00.527Z,14.18
2022-09-16T11:11:43.778Z,17.05
2022-09-16T11:14:20.250Z,12.85
2022-09-16T11:17:13.941Z,12.68
2022-09-16T11:20:02.719Z,10.00
2022-09-16T11:22:42.170Z,12.32
2022-09-16T11:25:39.347Z,11.25
2022-09-16T11:28:24.668Z,13.50
2022-09-16T11:31:29.787Z,16.17
2022-09-16T11:34:08.165Z,8.98
2022-09-16T11:36:52.331Z,14.93
2022-09-16T11:39:45.654Z,13.90
2022-09-16T11:42:32.121Z,13.88
2022-09-16T11:45:24.380Z,15.82
2022-09-16T11:47:54.829Z,16.63
2022-09-16T11:50:49.537Z,14.77
2022-09-16T11:53:43.752Z,12.65
2022-09-16T11:56:27.110Z,10.65
2022-09-16T11:59:00.258Z,11.82
2022-09-16T12:01:48.793Z,12.00
2022-09-16T12:04:48.781Z,13.48
2022-09-16T12:08:09.494Z,8.50
2022-09-16T12:10:39.937Z,13.40
2022-09-16T12:13:15.393Z,12.43
2022-09-16T12:15:51.828Z,15.07
2022-09-16T12:18:43.070Z,14.10
2022-09-16T12:21:36.064Z,9.55
2022-09-16T12:24:16.446Z,8.90
2022-09-16T12:27:07.413Z,16.95
2022-09-16T12:29:52.125Z,14.43
2022-09-16T12:32:22.281Z,9.70
2022-09-16T12:35:02.067Z,10.10
2022-09-16T12:37:42.522Z,16.60
2022-09-16T12:40:23.524Z,13.30
2022-09-16T12:43:01.292Z,11.68
2022-09-16T12:46:02.772Z,15.60
2022-09-16T12:49:05.747Z,12.80
2022-09-16T12:51:33.140Z,15.52
2022-09-16T12:54:15.563Z,14.25
2022-09-16T12:57:10.890Z,17.38
2022-09-16T13:00:02.820Z,14.15
2022-09-16T13:02:41.231Z,8.88
2022-09-16T13:05:33.883Z,12.05
2022-09-16T13:08:05.104Z,11.93
2022-09-16T13:10:53.777Z,10.27
2022-09-16T13:13:34.452Z,10.65
2022-09-16T13:16:05.089Z,12.18
2022-09-16T13:18:43.821Z,14.73
2022-09-16T13:21:20.360Z,12.52
2022-09-16T13:23:57.403Z,10.38
2022-09-16T13:26:24.816Z,11.10
2022-09-16T13:28:52.413Z,11.95
2022-09-16T13:31:34.044Z,15.45
2022-09-16T13:34:03.887Z,10.95
2022-09-16T13:36:33.452Z,12.48
2022-09-16T13:39:04.102Z,14.88
2022-09-16T13:41:33.456Z,14.60
2022-09-16T13:44:02.023Z,12.00
2022-09-16T13:46:38.005Z,12.55
2022-09-16T13:49:11.876Z,15.95
2022-09-16T13:51:45.048Z,12.23
2022-09-16T13:54:53.569Z,17.60
2022-09-16T13:57:43.397Z,10.73
2022-09-16T14:00:15.650Z,9.07
2022-09-16T14:03:06.210Z,14.07
2022-09-16T14:05:45.704Z,18.27
2022-09-16T14:08:32.563Z,15.07
2022-09-16T14:11:31.678Z,10.40
2022-09-16T14:14:36.239Z,13.57
2022-09-16T14:17:05.268Z,10.07
2022-09-16T14:19:38.556Z,11.27
2022-09-16T14:22:10.567Z,14.52
2022-09-16T14:24:42.626Z,12.52
2022-09-16T14:27:22.081Z,15.20
2022-09-16T14:30:00.383Z,9.48
2022-09-16T14:32:31.896Z,10.02
2022-09-16T14:35:24.279Z,10.90
2022-09-16T14:37:55.980Z,11.77
2022-09-16T14:40:26.420Z,11.75
2022-09-16T14:43:01.642Z,15.40
2022-09-16T14:45:31.383Z,15.30
2022-09-16T14:48:02.291Z,10.50
2022-09-16T14:50:33.297Z,11.85
2022-09-16T14:53:03.447Z,11.50
2022-09-16T14:55:37.653Z,12.02
2022-09-16T14:58:05.155Z,12.30
2022-09-16T15:00:59.073Z,7.93
2022-09-16T15:03:42.726Z,7.05
2022-09-16T15:06:14.914Z,8.75
2022-09-16T15:09:06.214Z,14.40
2022-09-16T15:11:48.045Z,9.73
2022-09-16T15:14:17.917Z,14.45
2022-09-16T15:16:56.061Z,11.60
2022-09-16T15:19:32.905Z,7.30
2022-09-16T15:22:00.643Z,12.95
2022-09-16T15:24:31.255Z,9.82
2022-09-16T15:27:00.086Z,10.20
2022-09-16T15:29:35.159Z,12.60
2022-09-16T15:32:21.058Z,10.98
2022-09-16T15:34:49.734Z,12.63
2022-09-16T15:37:32.034Z,13.20
2022-09-16T15:42:37.788Z,11.68
2022-09-16T15:45:17.769Z,7.75
2022-09-16T15:47:56.903Z,12.75
2022-09-16T15:50:27.792Z,12.30
2022-09-16T15:53:30.387Z,12.80
2022-09-16T15:58:53.370Z,7.82
2022-09-16T16:01:49.738Z,11.30
2022-09-16T16:04:29.694Z,13.88
2022-09-16T16:07:00.868Z,6.70
2022-09-16T16:09:29.352Z,8.88
2022-09-16T16:11:58.852Z,12.65
2022-09-16T16:14:34.373Z,19.92
2022-09-16T16:17:14.611Z,14.27
2022-09-16T16:19:47.183Z,10.77
2022-09-16T16:22:15.521Z,11.50
2022-09-16T16:24:42.932Z,12.63
2022-09-16T16:27:10.774Z,13.68
2022-09-16T16:29:39.110Z,8.10
2022-09-16T16:32:12.938Z,14.90
2022-09-16T16:34:42.878Z,8.57
2022-09-16T16:37:27.909Z,11.80
2022-09-16T16:40:00.740Z,11.88
2022-09-16T16:42:28.868Z,17.20
2022-09-16T16:44:59.417Z,12.43
2022-09-16T16:47:26.816Z,10.95
2022-09-16T16:49:54.218Z,11.27
2022-09-16T16:52:21.643Z,10.90
2022-09-16T16:54:49.038Z,9.30
2022-09-16T16:57:16.595Z,11.27
2022-09-16T16:59:43.967Z,14.98
2022-09-16T17:02:12.052Z,13.45
2022-09-16T17:04:39.536Z,11.38
2022-09-16T17:07:26.099Z,10.02
2022-09-16T17:09:54.725Z,11.63
2022-09-16T17:12:22.182Z,15.90
2022-09-16T17:14:49.543Z,10.52
2022-09-16T17:17:16.957Z,10.57
2022-09-16T17:19:44.305Z,13.88
2022-09-16T17:22:11.754Z,14.75
2022-09-16T17:24:39.235Z,12.07
2022-09-16T17:27:06.738Z,10.13
2022-09-16T17:29:34.493Z,17.10
2022-09-16T17:32:03.191Z,15.38
2022-09-16T17:34:31.243Z,10.95
2022-09-16T17:36:58.861Z,15.57
2022-09-16T17:39:26.646Z,10.30
2022-09-16T17:41:56.571Z,18.33
2022-09-16T17:44:24.671Z,11.95
2022-09-16T17:46:52.068Z,12.70
2022-09-16T17:49:21.790Z,13.65
2022-09-16T17:51:50.903Z,11.23
2022-09-16T17:54:18.325Z,9.13
2022-09-16T17:56:46.610Z,11.57
2022-09-16T17:59:16.921Z,14.05
2022-09-16T18:01:44.488Z,13.35
2022-09-16T18:04:12.544Z,12.00
2022-09-16T18:06:45.149Z,9.98
2022-09-16T18:09:13.599Z,12.68
2022-09-16T18:11:41.245Z,13.02
2022-09-16T18:14:12.078Z,13.80
2022-09-16T18:16:40.125Z,10.40
2022-09-16T18:19:08.616Z,11.75
2022-09-16T18:21:38.124Z,9.60
2022-09-16T18:24:10.944Z,12.52
2022-09-16T18:26:39.575Z,14.32
2022-09-16T18:29:11.239Z,13.23
2022-09-16T18:31:41.572Z,12.85
2022-09-16T18:34:09.334Z,20.25
2022-09-16T18:36:37.676Z,11.60
2022-09-16T18:39:07.022Z,14.48
2022-09-16T18:41:39.539Z,12.27
2022-09-16T18:44:15.672Z,12.77
2022-09-16T18:46:43.577Z,12.38
2022-09-16T18:49:13.484Z,17.50
2022-09-16T18:51:50.813Z,20.00
2022-09-16T18:54:24.579Z,14.00
2022-09-16T18:56:55.927Z,15.00
2022-09-16T18:59:26.918Z,10.85
2022-09-16T19:01:57.450Z,18.70
2022-09-16T19:04:28.120Z,19.95
2022-09-16T19:06:59.268Z,19.00
2022-09-16T19:09:26.762Z,17.17
2022-09-16T19:11:54.634Z,18.17
2022-09-16T19:14:24.908Z,13.27
2022-09-16T19:16:53.180Z,15.20
2022-09-16T19:19:21.813Z,24.52
2022-09-16T19:21:49.419Z,13.48
2022-09-16T19:24:19.509Z,17.35
2022-09-16T19:26:48.193Z,13.48
2022-09-16T19:29:16.552Z,14.38
2022-09-16T19:31:46.583Z,17.45
2022-09-16T19:34:15.464Z,14.32
2022-09-16T19:36:43.757Z,11.60
2022-09-16T19:39:12.318Z,11.98
2022-09-16T19:41:41.471Z,20.58
2022-09-16T19:44:12.940Z,12.82
2022-09-16T19:46:42.684Z,15.30
2022-09-16T19:49:16.095Z,15.07
2022-09-16T19:51:44.028Z,14.32
2022-09-16T19:54:11.658Z,14.30
2022-09-16T19:56:39.230Z,14.38
2022-09-16T19:59:07.461Z,13.38
2022-09-16T20:01:36.176Z,14.93
2022-09-16T20:04:06.662Z,14.80
2022-09-16T20:06:39.886Z,16.02
2022-09-16T20:09:13.348Z,17.40
2022-09-16T20:11:42.911Z,12.20
2022-09-16T20:14:33.884Z,13.90
2022-09-16T20:17:01.293Z,12.50
2022-09-16T20:19:29.135Z,11.05
2022-09-16T20:21:56.716Z,6.60
2022-09-16T20:24:24.920Z,9.57
2022-09-16T20:26:54.324Z,6.28
2022-09-16T20:29:21.897Z,5.35
2022-09-16T20:31:52.241Z,7.43
2022-09-16T20:34:22.962Z,4.85
2022-09-16T20:36:50.780Z,4.95
2022-09-16T20:39:18.577Z,4.88
2022-09-16T20:41:49.732Z,7.13
2022-09-16T20:44:17.200Z,5.25
2022-09-16T20:46:44.624Z,5.47
2022-09-16T20:49:15.821Z,6.20
2022-09-16T20:51:43.845Z,3.17
2022-09-16T20:54:14.298Z,5.28
2022-09-16T20:56:44.103Z,5.45
2022-09-16T20:59:13.334Z,7.72
2022-09-16T21:01:41.637Z,5.07
2022-09-16T21:04:13.860Z,7.32
2022-09-16T21:09:12.093Z,3.45
2022-09-16T21:11:45.022Z,4.18
2022-09-16T21:14:15.981Z,3.17
2022-09-16T21:16:45.804Z,6.13
2022-09-16T21:19:14.131Z,5.95
2022-09-16T21:21:47.750Z,3.50
2022-09-16T21:24:16.367Z,5.57
2022-09-16T21:26:44.188Z,3.42
2022-09-16T21:29:20.248Z,3.30
2022-09-16T21:31:48.874Z,4.65
2022-09-16T21:34:18.381Z,7.15
2022-09-16T21:36:46.192Z,11.27
2022-09-16T21:39:14.902Z,4.70
2022-09-16T21:41:43.307Z,5.95
2022-09-16T21:44:11.790Z,6.45
2022-09-16T21:46:43.078Z,7.22
2022-09-16T21:49:22.441Z,9.20
2022-09-16T21:54:36.688Z,6.88
2022-09-16T21:57:04.193Z,4.55
2022-09-16T21:59:31.541Z,3.53
2022-09-16T22:02:03.546Z,3.17
2022-09-16T22:04:31.346Z,3.95
2022-09-16T22:06:58.781Z,5.00
2022-09-16T22:09:26.136Z,10.20
2022-09-16T22:11:53.685Z,4.72
2022-09-16T22:14:21.114Z,3.40
2022-09-16T22:16:48.442Z,2.92
2022-09-16T22:19:19.439Z,2.75
2022-09-16T22:21:49.196Z,3.28
2022-09-16T22:24:20.171Z,5.22
2022-09-16T22:26:49.534Z,1.98
2022-09-16T22:29:17.257Z,1.63
2022-09-16T22:31:44.679Z,2.60
2022-09-16T22:34:12.108Z,2.65
2022-09-16T22:36:39.963Z,2.80
2022-09-16T22:39:15.471Z,2.00
2022-09-16T22:41:43.118Z,3.58
2022-09-16T22:44:10.630Z,2.58
2022-09-16T22:46:46.456Z,3.15
2022-09-16T22:49:15.053Z,0.68
2022-09-16T22:51:43.149Z,6.85
2022-09-16T22:54:12.424Z,4.55
2022-09-16T22:56:39.958Z,3.75
2022-09-16T22:59:08.417Z,2.25
2022-09-16T23:01:39.058Z,2.80
2022-09-16T23:04:08.417Z,0.60
2022-09-16T23:06:37.514Z,0.77
2022-09-16T23:09:06.478Z,4.30
2022-09-16T23:11:35.505Z,1.00
2022-09-16T23:14:04.192Z,2.53
2022-09-16T23:16:36.336Z,1.98
2022-09-16T23:19:07.143Z,0.55
2022-09-16T23:21:34.589Z,0.45
2022-09-16T23:24:04.528Z,2.30
2022-09-16T23:26:37.532Z,0.30
2022-09-16T23:29:08.141Z,0.93
2022-09-16T23:31:40.380Z,0.20
2022-09-16T23:36:37.959Z,1.48
2022-09-16T23:39:07.044Z,3.72
2022-09-16T23:41:35.270Z,0.30
2022-09-16T23:44:02.693Z,0.70
2022-09-16T23:46:31.155Z,0.50
2022-09-16T23:48:59.309Z,2.38
2022-09-16T23:51:28.754Z,3.58
2022-09-16T23:53:57.611Z,3.67
2022-09-16T23:56:25.569Z,1.73
2022-09-16T23:58:53.689Z,3.40
